createdAt,value
2022-08-25T00:01:39.812Z,1.92
2022-08-25T00:04:10.902Z,1.98
2022-08-25T00:06:39.660Z,2.40
2022-08-25T00:09:06.971Z,2.40
2022-08-25T00:11:34.684Z,2.17
2022-08-25T00:14:05.329Z,2.58
2022-08-25T00:16:32.769Z,2.33
2022-08-25T00:19:03.970Z,2.00
2022-08-25T00:21:31.812Z,2.38
2022-08-25T00:23:59.694Z,2.10
2022-08-25T00:26:27.619Z,2.13
2022-08-25T00:28:56.397Z,2.70
2022-08-25T00:31:38.732Z,2.30
2022-08-25T00:34:09.328Z,2.75
2022-08-25T00:36:36.139Z,2.25
2022-08-25T00:39:03.852Z,2.22
2022-08-25T00:41:30.600Z,2.20
2022-08-25T00:44:00.904Z,2.53
2022-08-25T00:46:32.827Z,2.45
2022-08-25T00:49:03.765Z,2.60
2022-08-25T00:51:40.344Z,2.40
2022-08-25T00:54:08.076Z,3.00
2022-08-25T00:56:35.257Z,2.80
2022-08-25T00:59:03.763Z,2.83
2022-08-25T01:01:30.634Z,2.65
2022-08-25T01:03:57.599Z,2.65
2022-08-25T01:06:24.597Z,2.45
2022-08-25T01:08:52.726Z,2.70
2022-08-25T01:11:19.458Z,2.50
2022-08-25T01:13:51.063Z,2.67
2022-08-25T01:16:18.089Z,2.90
2022-08-25T01:18:57.574Z,2.60
2022-08-25T01:21:27.385Z,2.50
2022-08-25T01:23:58.153Z,2.80
2022-08-25T01:26:30.752Z,2.67
2022-08-25T01:29:18.314Z,2.60
2022-08-25T01:31:46.513Z,2.47
2022-08-25T01:34:15.722Z,2.67
2022-08-25T01:36:44.182Z,2.42
2022-08-25T01:39:11.779Z,2.60
2022-08-25T01:42:04.742Z,2.65
2022-08-25T01:44:35.890Z,2.80
2022-08-25T01:47:04.054Z,2.88
2022-08-25T01:49:30.969Z,3.25
2022-08-25T01:52:06.737Z,2.95
2022-08-25T01:54:33.519Z,3.33
2022-08-25T01:57:00.183Z,2.90
2022-08-25T01:59:27.230Z,2.85
2022-08-25T02:02:00.021Z,2.97
2022-08-25T02:04:29.439Z,3.05
2022-08-25T02:06:56.230Z,2.92
2022-08-25T02:09:23.178Z,2.88
2022-08-25T02:11:49.983Z,2.70
2022-08-25T02:14:18.310Z,3.00
2022-08-25T02:16:48.940Z,3.58
2022-08-25T02:19:17.206Z,3.40
2022-08-25T02:21:44.294Z,2.70
2022-08-25T02:24:12.332Z,3.40
2022-08-25T02:26:39.608Z,3.17
2022-08-25T02:29:07.772Z,3.25
2022-08-25T02:31:35.699Z,3.15
2022-08-25T02:34:02.944Z,3.15
2022-08-25T02:36:30.692Z,3.38
2022-08-25T02:38:57.499Z,3.50
2022-08-25T02:41:27.769Z,2.92
2022-08-25T02:43:58.727Z,3.10
2022-08-25T02:46:25.538Z,3.08
2022-08-25T02:48:53.269Z,3.33
2022-08-25T02:51:28.539Z,3.22
2022-08-25T02:53:56.275Z,3.08
2022-08-25T02:56:24.126Z,2.97
2022-08-25T02:58:50.887Z,3.20
2022-08-25T03:01:17.792Z,3.35
2022-08-25T03:03:46.231Z,3.55
2022-08-25T03:06:16.574Z,3.90
2022-08-25T03:08:44.302Z,4.15
2022-08-25T03:11:11.882Z,3.47
2022-08-25T03:13:38.710Z,3.45
2022-08-25T03:16:11.168Z,3.72
2022-08-25T03:18:40.750Z,3.72
2022-08-25T03:21:08.054Z,3.60
2022-08-25T03:23:35.349Z,3.42
2022-08-25T03:26:20.609Z,3.22
2022-08-25T03:28:47.403Z,3.72
2022-08-25T03:31:14.642Z,3.90
2022-08-25T03:33:41.892Z,3.20
2022-08-25T03:36:09.440Z,3.55
2022-08-25T03:38:38.269Z,3.22
2022-08-25T03:41:34.978Z,3.50
2022-08-25T03:44:04.459Z,3.50
2022-08-25T03:46:38.588Z,3.42
2022-08-25T03:49:07.377Z,4.03
2022-08-25T03:51:43.587Z,3.78
2022-08-25T03:54:11.273Z,3.42
2022-08-25T03:56:39.639Z,4.03
2022-08-25T03:59:09.167Z,4.25
2022-08-25T04:01:40.843Z,3.85
2022-08-25T04:04:10.174Z,4.10
2022-08-25T04:06:38.730Z,3.88
2022-08-25T04:09:06.424Z,3.88
2022-08-25T04:11:33.275Z,4.03
2022-08-25T04:14:01.306Z,4.13
2022-08-25T04:16:33.559Z,3.28
2022-08-25T04:19:02.287Z,3.70
2022-08-25T04:21:29.780Z,3.78
2022-08-25T04:23:57.282Z,3.60
2022-08-25T04:26:37.254Z,4.00
2022-08-25T04:29:06.075Z,4.03
2022-08-25T04:31:33.512Z,3.40
2022-08-25T04:34:03.433Z,3.85
2022-08-25T04:36:30.944Z,3.25
2022-08-25T04:38:57.639Z,3.80
2022-08-25T04:41:25.625Z,3.60
2022-08-25T04:43:53.016Z,3.58
2022-08-25T04:46:25.260Z,4.00
2022-08-25T04:48:53.723Z,3.65
2022-08-25T04:51:27.728Z,3.92
2022-08-25T04:53:54.612Z,3.25
2022-08-25T04:56:26.591Z,4.05
2022-08-25T04:58:54.472Z,3.80
2022-08-25T05:01:24.097Z,3.85
2022-08-25T05:03:59.794Z,3.92
2022-08-25T05:06:28.802Z,3.97
2022-08-25T05:08:56.440Z,3.83
2022-08-25T05:11:24.274Z,4.20
2022-08-25T05:13:54.478Z,4.30
2022-08-25T05:16:23.055Z,4.00
2022-08-25T05:18:50.299Z,4.18
2022-08-25T05:21:20.428Z,4.13
2022-08-25T05:23:48.048Z,4.20
2022-08-25T05:26:21.179Z,3.92
2022-08-25T05:28:50.605Z,3.67
2022-08-25T05:31:18.457Z,3.88
2022-08-25T05:33:45.155Z,3.92
2022-08-25T05:36:14.208Z,4.40
2022-08-25T05:38:41.906Z,4.45
2022-08-25T05:41:10.993Z,4.18
2022-08-25T05:43:39.853Z,4.40
2022-08-25T05:46:06.987Z,4.28
2022-08-25T05:48:34.032Z,4.30
2022-08-25T05:51:04.029Z,4.85
2022-08-25T05:53:31.156Z,4.43
2022-08-25T05:56:01.379Z,4.43
2022-08-25T05:58:29.186Z,3.97
2022-08-25T06:00:58.042Z,4.53
2022-08-25T06:03:24.826Z,4.13
2022-08-25T06:05:51.563Z,4.38
2022-08-25T06:08:19.415Z,3.63
2022-08-25T06:10:51.529Z,3.88
2022-08-25T06:13:18.240Z,4.40
2022-08-25T06:15:58.279Z,4.22
2022-08-25T06:18:25.133Z,4.10
2022-08-25T06:20:52.054Z,4.30
2022-08-25T06:23:19.338Z,4.28
2022-08-25T06:25:51.246Z,3.95
2022-08-25T06:28:19.332Z,4.15
2022-08-25T06:30:47.106Z,3.63
2022-08-25T06:33:14.633Z,4.10
2022-08-25T06:35:42.908Z,3.72
2022-08-25T06:38:10.262Z,4.15
2022-08-25T06:40:37.493Z,4.20
2022-08-25T06:43:08.733Z,3.83
2022-08-25T06:45:35.502Z,3.78
2022-08-25T06:48:02.293Z,3.75
2022-08-25T06:50:29.130Z,3.80
2022-08-25T06:52:55.786Z,4.43
2022-08-25T06:55:22.776Z,3.50
2022-08-25T06:57:53.654Z,3.35
2022-08-25T07:00:23.080Z,3.42
2022-08-25T07:02:58.631Z,3.30
2022-08-25T07:05:33.713Z,3.15
2022-08-25T07:08:01.170Z,3.13
2022-08-25T07:10:27.893Z,3.50
2022-08-25T07:12:58.302Z,3.47
2022-08-25T07:15:25.031Z,3.35
2022-08-25T07:17:51.682Z,3.28
2022-08-25T07:20:19.412Z,3.33
2022-08-25T07:22:46.697Z,2.92
2022-08-25T07:25:13.761Z,3.22
2022-08-25T07:27:42.455Z,3.33
2022-08-25T07:30:11.274Z,2.97
2022-08-25T07:32:38.406Z,2.92
2022-08-25T07:35:15.932Z,2.90
2022-08-25T07:37:49.792Z,3.08
2022-08-25T07:40:21.515Z,3.53
2022-08-25T07:42:54.023Z,3.55
2022-08-25T07:45:29.600Z,4.10
2022-08-25T07:48:01.914Z,3.47
2022-08-25T07:50:29.791Z,3.05
2022-08-25T07:52:57.499Z,3.83
2022-08-25T07:55:25.442Z,3.10
2022-08-25T07:57:55.981Z,2.85
2022-08-25T08:00:27.571Z,3.50
2022-08-25T08:02:54.905Z,3.20
2022-08-25T08:05:21.688Z,3.03
2022-08-25T08:07:50.898Z,3.00
2022-08-25T08:11:00.539Z,3.33
2022-08-25T08:13:07.339Z,3.00
2022-08-25T08:15:35.477Z,2.53
2022-08-25T08:18:03.134Z,3.50
2022-08-25T08:20:42.524Z,2.72
2022-08-25T08:23:10.772Z,2.83
2022-08-25T08:25:37.457Z,2.67
2022-08-25T08:28:04.155Z,3.30
2022-08-25T08:30:36.515Z,3.53
2022-08-25T08:33:12.786Z,2.80
2022-08-25T08:35:43.296Z,3.28
2022-08-25T08:38:17.269Z,2.90
2022-08-25T08:41:23.178Z,2.95
2022-08-25T08:44:07.867Z,2.95
2022-08-25T08:47:03.959Z,3.03
2022-08-25T08:49:47.625Z,2.83
2022-08-25T08:52:17.701Z,2.65
2022-08-25T08:54:50.020Z,2.97
2022-08-25T08:57:22.557Z,3.08
2022-08-25T08:59:55.123Z,2.75
2022-08-25T09:02:39.539Z,2.53
2022-08-25T09:05:21.033Z,2.60
2022-08-25T09:07:55.088Z,2.83
2022-08-25T09:10:24.430Z,2.70
2022-08-25T09:13:19.137Z,2.65
2022-08-25T09:16:31.693Z,2.85
2022-08-25T09:19:48.804Z,3.38
2022-08-25T09:22:40.210Z,2.42
2022-08-25T09:25:39.631Z,2.47
2022-08-25T09:28:32.384Z,2.47
2022-08-25T09:31:16.779Z,2.28
2022-08-25T09:33:43.684Z,2.58
2022-08-25T09:36:10.830Z,2.58
2022-08-25T09:38:38.339Z,2.17
2022-08-25T09:41:06.000Z,2.20
2022-08-25T09:43:40.387Z,2.30
2022-08-25T09:46:10.611Z,2.78
2022-08-25T09:48:45.455Z,2.30
2022-08-25T09:51:42.556Z,2.75
2022-08-25T09:54:13.054Z,2.40
2022-08-25T09:57:01.825Z,2.63
2022-08-25T09:59:35.788Z,2.33
2022-08-25T10:02:23.907Z,2.22
2022-08-25T10:04:54.189Z,2.53
2022-08-25T10:07:38.164Z,2.30
2022-08-25T10:10:17.724Z,2.60
2022-08-25T10:12:51.567Z,2.55
2022-08-25T10:15:29.209Z,2.55
2022-08-25T10:18:16.079Z,2.60
2022-08-25T10:20:44.803Z,2.60
2022-08-25T10:23:15.016Z,2.45
2022-08-25T10:26:00.372Z,2.70
2022-08-25T10:28:43.402Z,2.58
2022-08-25T10:31:33.100Z,2.70
2022-08-25T10:34:22.088Z,2.50
2022-08-25T10:37:33.328Z,2.45
2022-08-25T10:40:18.919Z,2.70
2022-08-25T10:43:19.156Z,2.67
2022-08-25T10:45:52.534Z,2.53
2022-08-25T10:48:40.867Z,2.70
2022-08-25T10:51:18.050Z,2.75
2022-08-25T10:54:17.895Z,2.72
2022-08-25T10:57:01.456Z,2.72
2022-08-25T10:59:50.392Z,2.47
2022-08-25T11:02:48.420Z,2.50
2022-08-25T11:05:40.358Z,2.70
2022-08-25T11:08:14.396Z,2.60
2022-08-25T11:10:54.722Z,2.95
2022-08-25T11:13:44.305Z,2.40
2022-08-25T11:16:18.745Z,2.95
2022-08-25T11:19:08.517Z,2.50
2022-08-25T11:21:54.058Z,2.80
2022-08-25T11:24:36.621Z,2.53
2022-08-25T11:27:06.953Z,2.58
2022-08-25T11:29:37.123Z,2.20
2022-08-25T11:32:06.707Z,2.60
2022-08-25T11:34:36.861Z,3.00
2022-08-25T11:37:25.430Z,2.65
2022-08-25T11:40:08.743Z,2.83
2022-08-25T11:42:47.714Z,2.75
2022-08-25T11:45:45.873Z,2.55
2022-08-25T11:48:45.916Z,2.35
2022-08-25T11:51:40.308Z,2.60
2022-08-25T11:54:44.016Z,2.70
2022-08-25T11:57:25.726Z,2.72
2022-08-25T11:59:53.588Z,2.30
2022-08-25T12:02:44.170Z,2.40
2022-08-25T12:05:32.906Z,2.47
2022-08-25T12:08:25.429Z,2.50
2022-08-25T12:10:52.453Z,2.30
2022-08-25T12:13:41.463Z,2.20
2022-08-25T12:16:31.518Z,2.60
2022-08-25T12:19:25.809Z,2.70
2022-08-25T12:21:55.314Z,2.72
2022-08-25T12:24:48.065Z,2.83
2022-08-25T12:27:47.165Z,2.88
2022-08-25T12:30:52.691Z,2.85
2022-08-25T12:33:47.298Z,2.95
2022-08-25T12:36:30.996Z,2.50
2022-08-25T12:39:24.411Z,3.03
2022-08-25T12:41:59.857Z,2.88
2022-08-25T12:44:47.757Z,2.70
2022-08-25T12:47:24.445Z,2.85
2022-08-25T12:49:51.402Z,2.60
2022-08-25T12:52:21.741Z,2.95
2022-08-25T12:55:05.377Z,2.42
2022-08-25T12:57:45.419Z,3.10
2022-08-25T13:03:25.015Z,2.58
2022-08-25T13:06:19.022Z,2.60
2022-08-25T13:08:54.634Z,3.28
2022-08-25T13:11:35.220Z,2.70
2022-08-25T13:14:29.885Z,2.97
2022-08-25T13:16:59.204Z,2.70
2022-08-25T13:19:27.383Z,2.78
2022-08-25T13:22:15.923Z,2.80
2022-08-25T13:24:44.904Z,2.88
2022-08-25T13:27:22.691Z,2.70
2022-08-25T13:29:56.453Z,3.10
2022-08-25T13:32:32.485Z,3.10
2022-08-25T13:35:17.751Z,2.30
2022-08-25T13:37:46.976Z,2.60
2022-08-25T13:40:26.913Z,2.50
2022-08-25T13:42:59.148Z,2.65
2022-08-25T13:45:31.878Z,2.70
2022-08-25T13:47:59.122Z,2.60
2022-08-25T13:50:26.543Z,2.40
2022-08-25T13:53:12.392Z,2.70
2022-08-25T13:55:51.039Z,2.50
2022-08-25T13:58:24.800Z,2.50
2022-08-25T14:01:48.915Z,2.75
2022-08-25T14:04:50.567Z,2.90
2022-08-25T14:07:22.284Z,2.42
2022-08-25T14:09:56.261Z,2.65
2022-08-25T14:12:47.465Z,2.75
2022-08-25T14:15:17.293Z,2.30
2022-08-25T14:17:48.416Z,2.60
2022-08-25T14:20:22.024Z,2.28
2022-08-25T14:22:54.554Z,2.50
2022-08-25T14:25:22.026Z,2.20
2022-08-25T14:28:06.791Z,2.38
2022-08-25T14:30:38.977Z,2.22
2022-08-25T14:33:07.042Z,2.80
2022-08-25T14:35:34.460Z,2.70
2022-08-25T14:38:08.405Z,2.47
2022-08-25T14:40:35.503Z,2.22
2022-08-25T14:43:02.354Z,2.40
2022-08-25T14:45:31.292Z,2.47
2022-08-25T14:48:10.423Z,2.50
2022-08-25T14:50:38.123Z,2.10
2022-08-25T14:53:10.398Z,2.58
2022-08-25T14:55:37.750Z,2.60
2022-08-25T14:58:06.855Z,2.47
2022-08-25T15:00:40.555Z,2.40
2022-08-25T15:03:07.587Z,2.30
2022-08-25T15:05:34.586Z,2.50
2022-08-25T15:08:19.658Z,2.53
2022-08-25T15:10:47.601Z,2.50
2022-08-25T15:13:15.170Z,2.70
2022-08-25T15:15:52.718Z,2.70
2022-08-25T15:18:20.946Z,2.20
2022-08-25T15:20:50.143Z,2.58
2022-08-25T15:23:18.678Z,2.35
2022-08-25T15:25:48.718Z,2.45
2022-08-25T15:28:21.876Z,2.25
2022-08-25T15:30:49.770Z,2.30
2022-08-25T15:33:17.321Z,2.70
2022-08-25T15:35:44.327Z,2.35
2022-08-25T15:38:12.618Z,2.70
2022-08-25T15:40:39.658Z,2.55
2022-08-25T15:43:06.901Z,2.63
2022-08-25T15:45:36.081Z,2.47
2022-08-25T15:48:04.363Z,2.47
2022-08-25T15:50:34.053Z,2.90
2022-08-25T15:53:01.000Z,2.30
2022-08-25T15:55:28.158Z,2.63
2022-08-25T15:57:55.619Z,2.63
2022-08-25T16:00:23.059Z,2.58
2022-08-25T16:02:50.213Z,2.50
2022-08-25T16:05:17.345Z,2.63
2022-08-25T16:07:46.051Z,2.38
2022-08-25T16:10:13.647Z,2.50
2022-08-25T16:12:42.681Z,2.72
2022-08-25T16:15:12.276Z,2.72
2022-08-25T16:17:40.530Z,2.95
2022-08-25T16:20:08.317Z,2.72
2022-08-25T16:22:41.015Z,2.88
2022-08-25T16:25:08.857Z,2.60
2022-08-25T16:27:38.748Z,2.70
2022-08-25T16:30:08.145Z,2.75
2022-08-25T16:32:35.139Z,2.80
2022-08-25T16:35:03.389Z,2.70
2022-08-25T16:37:30.366Z,2.95
2022-08-25T16:39:57.291Z,2.63
2022-08-25T16:42:24.453Z,2.50
2022-08-25T16:44:53.851Z,2.22
2022-08-25T16:47:25.234Z,2.60
2022-08-25T16:49:54.205Z,2.97
2022-08-25T16:52:40.700Z,2.33
2022-08-25T16:55:14.307Z,2.75
2022-08-25T16:57:47.773Z,2.50
2022-08-25T17:00:18.408Z,2.88
2022-08-25T17:02:45.982Z,3.25
2022-08-25T17:05:14.619Z,2.95
2022-08-25T17:07:41.653Z,2.63
2022-08-25T17:10:12.702Z,2.70
2022-08-25T17:12:40.561Z,2.92
2022-08-25T17:15:07.887Z,3.00
2022-08-25T17:17:36.438Z,2.65
2022-08-25T17:20:04.732Z,2.70
2022-08-25T17:22:31.708Z,2.58
2022-08-25T17:25:01.003Z,2.33
2022-08-25T17:27:28.305Z,2.78
2022-08-25T17:29:55.961Z,2.83
2022-08-25T17:32:30.200Z,2.75
2022-08-25T17:34:57.753Z,2.90
2022-08-25T17:37:25.187Z,3.20
2022-08-25T17:39:56.761Z,2.72
2022-08-25T17:42:30.226Z,2.25
2022-08-25T17:44:57.428Z,2.80
2022-08-25T17:47:24.101Z,2.50
2022-08-25T17:49:50.816Z,2.67
2022-08-25T17:52:17.798Z,2.45
2022-08-25T17:54:48.411Z,3.10
2022-08-25T17:57:16.161Z,2.97
2022-08-25T17:59:42.948Z,2.65
2022-08-25T18:02:09.833Z,2.90
2022-08-25T18:04:38.210Z,3.05
2022-08-25T18:07:06.768Z,2.72
2022-08-25T18:09:33.660Z,3.22
2022-08-25T18:12:00.466Z,3.10
2022-08-25T18:14:27.314Z,3.40
2022-08-25T18:16:54.372Z,3.63
2022-08-25T18:19:21.317Z,3.88
2022-08-25T18:21:48.421Z,3.10
2022-08-25T18:24:15.226Z,3.50
2022-08-25T18:26:42.201Z,4.18
2022-08-25T18:29:12.894Z,4.40
2022-08-25T18:31:41.226Z,4.70
2022-08-25T18:34:11.104Z,4.07
2022-08-25T18:36:38.878Z,3.58
2022-08-25T18:39:42.239Z,3.53
2022-08-25T18:42:10.746Z,3.50
2022-08-25T18:44:37.597Z,3.22
2022-08-25T18:47:07.569Z,3.47
2022-08-25T18:49:34.829Z,4.00
2022-08-25T18:52:01.546Z,3.45
2022-08-25T18:54:28.570Z,3.67
2022-08-25T18:56:56.348Z,3.75
2022-08-25T18:59:23.511Z,4.10
2022-08-25T19:01:51.473Z,3.75
2022-08-25T19:04:18.324Z,3.65
2022-08-25T19:06:45.066Z,3.63
2022-08-25T19:09:12.037Z,3.53
2022-08-25T19:11:38.871Z,3.50
2022-08-25T19:14:12.143Z,3.72
2022-08-25T19:16:41.266Z,3.85
2022-08-25T19:19:13.083Z,3.60
2022-08-25T19:21:41.260Z,3.88
2022-08-25T19:24:08.874Z,3.70
2022-08-25T19:26:36.037Z,3.88
2022-08-25T19:29:05.181Z,3.50
2022-08-25T19:31:36.657Z,3.65
2022-08-25T19:34:04.630Z,3.70
2022-08-25T19:36:31.829Z,3.35
2022-08-25T19:39:01.410Z,3.05
2022-08-25T19:41:31.418Z,3.58
2022-08-25T19:43:58.586Z,3.50
2022-08-25T19:46:32.693Z,3.47
2022-08-25T19:49:06.491Z,3.40
2022-08-25T19:51:35.040Z,3.78
2022-08-25T19:54:01.884Z,3.53
2022-08-25T19:56:30.234Z,3.60
2022-08-25T19:58:57.519Z,3.72
2022-08-25T20:01:24.578Z,3.55
2022-08-25T20:03:52.122Z,3.35
2022-08-25T20:06:19.017Z,3.67
2022-08-25T20:08:45.993Z,3.50
2022-08-25T20:11:12.775Z,3.70
2022-08-25T20:13:39.977Z,3.78
2022-08-25T20:16:07.532Z,3.88
2022-08-25T20:18:34.278Z,3.53
2022-08-25T20:21:00.952Z,3.67
2022-08-25T20:23:46.167Z,3.72
2022-08-25T20:26:12.886Z,3.60
2022-08-25T20:28:42.161Z,3.90
2022-08-25T20:31:09.173Z,3.95
2022-08-25T20:33:36.076Z,3.92
2022-08-25T20:36:04.858Z,3.60
2022-08-25T20:38:32.054Z,3.58
2022-08-25T20:41:01.305Z,3.83
2022-08-25T20:43:29.696Z,3.53
2022-08-25T20:46:01.793Z,3.75
2022-08-25T20:48:28.663Z,4.05
2022-08-25T20:50:57.631Z,3.55
2022-08-25T20:53:25.416Z,4.00
2022-08-25T20:55:52.201Z,3.50
2022-08-25T20:58:19.027Z,4.00
2022-08-25T21:00:46.678Z,3.67
2022-08-25T21:03:13.647Z,3.90
2022-08-25T21:05:42.738Z,4.03
2022-08-25T21:08:10.282Z,3.88
2022-08-25T21:10:37.785Z,3.92
2022-08-25T21:13:04.520Z,4.00
2022-08-25T21:15:31.587Z,3.83
2022-08-25T21:17:58.340Z,3.90
2022-08-25T21:20:26.384Z,4.10
2022-08-25T21:22:53.440Z,4.00
2022-08-25T21:25:21.679Z,4.45
2022-08-25T21:27:49.292Z,4.28
2022-08-25T21:30:16.570Z,4.35
2022-08-25T21:32:52.964Z,4.18
2022-08-25T21:35:22.488Z,4.10
2022-08-25T21:37:53.294Z,4.20
2022-08-25T21:40:22.983Z,4.07
2022-08-25T21:42:50.618Z,4.47
2022-08-25T21:45:17.401Z,4.05
2022-08-25T21:47:49.046Z,4.68
2022-08-25T21:50:15.775Z,4.35
2022-08-25T21:52:42.573Z,4.63
2022-08-25T21:55:16.120Z,4.38
2022-08-25T21:57:43.796Z,4.47
2022-08-25T22:00:11.551Z,4.15
2022-08-25T22:02:38.491Z,4.10
2022-08-25T22:05:09.418Z,4.20
2022-08-25T22:07:41.747Z,4.20
2022-08-25T22:10:16.580Z,4.00
2022-08-25T22:12:45.889Z,4.32
2022-08-25T22:15:15.515Z,4.32
2022-08-25T22:17:42.215Z,4.45
2022-08-25T22:20:09.986Z,4.07
2022-08-25T22:22:36.705Z,4.43
2022-08-25T22:25:03.963Z,4.03
2022-08-25T22:27:32.900Z,4.00
2022-08-25T22:30:00.887Z,3.75
2022-08-25T22:32:27.563Z,4.22
2022-08-25T22:34:54.272Z,4.20
2022-08-25T22:37:20.935Z,4.47
2022-08-25T22:39:48.650Z,4.18
2022-08-25T22:42:15.555Z,4.22
2022-08-25T22:44:42.496Z,4.30
2022-08-25T22:47:10.589Z,4.25
2022-08-25T22:49:39.339Z,4.00
2022-08-25T22:52:07.738Z,3.92
2022-08-25T22:54:38.527Z,3.90
2022-08-25T22:57:06.892Z,3.90
2022-08-25T22:59:33.757Z,4.20
2022-08-25T23:02:00.660Z,4.45
2022-08-25T23:04:27.570Z,3.97
2022-08-25T23:06:54.392Z,3.55
2022-08-25T23:09:21.663Z,4.15
2022-08-25T23:11:51.353Z,4.47
2022-08-25T23:14:18.492Z,4.38
2022-08-25T23:16:45.296Z,3.85
2022-08-25T23:19:13.794Z,4.72
2022-08-25T23:22:03.574Z,4.50
2022-08-25T23:24:31.593Z,4.38
2022-08-25T23:27:00.900Z,4.25
2022-08-25T23:29:28.115Z,4.50
2022-08-25T23:31:56.101Z,4.70
2022-08-25T23:34:23.912Z,5.07
2022-08-25T23:36:50.999Z,5.25
2022-08-25T23:39:17.919Z,5.00
2022-08-25T23:41:44.667Z,5.10
2022-08-25T23:44:17.083Z,5.03
2022-08-25T23:46:45.376Z,4.75
2022-08-25T23:49:14.488Z,4.25
2022-08-25T23:51:45.336Z,4.78
2022-08-25T23:54:12.155Z,4.57
2022-08-25T23:56:44.424Z,4.60
2022-08-25T23:59:13.083Z,5.03
